sensor_id;sensor_type;location;lat;lon;timestamp;temperature;humidity
54168;DHT22;40072;50.958;3.592;2022-08-16T00:00:49;19.80;99.90
54168;DHT22;40072;50.958;3.592;2022-08-16T00:03:15;19.70;99.90
54168;DHT22;40072;50.958;3.592;2022-08-16T00:05:42;19.80;99.90
54168;DHT22;40072;50.958;3.592;2022-08-16T00:08:09;19.70;99.90
54168;DHT22;40072;50.958;3.592;2022-08-16T00:10:35;19.70;99.90
54168;DHT22;40072;50.958;3.592;2022-08-16T00:13:03;19.70;99.90
54168;DHT22;40072;50.958;3.592;2022-08-16T00:15:42;19.70;99.90
54168;DHT22;40072;50.958;3.592;2022-08-16T00:18:08;19.70;99.90
54168;DHT22;40072;50.958;3.592;2022-08-16T00:20:35;19.80;99.90
54168;DHT22;40072;50.958;3.592;2022-08-16T00:23:02;19.70;99.90
54168;DHT22;40072;50.958;3.592;2022-08-16T00:25:27;19.80;99.90
54168;DHT22;40072;50.958;3.592;2022-08-16T00:27:53;19.80;99.90
54168;DHT22;40072;50.958;3.592;2022-08-16T00:30:20;19.80;99.90
54168;DHT22;40072;50.958;3.592;2022-08-16T00:32:49;19.80;99.90
54168;DHT22;40072;50.958;3.592;2022-08-16T00:35:22;19.80;99.90
54168;DHT22;40072;50.958;3.592;2022-08-16T00:37:49;19.70;99.90
54168;DHT22;40072;50.958;3.592;2022-08-16T00:40:21;19.60;99.90
54168;DHT22;40072;50.958;3.592;2022-08-16T00:42:47;19.50;99.90
54168;DHT22;40072;50.958;3.592;2022-08-16T00:45:31;19.40;99.90
54168;DHT22;40072;50.958;3.592;2022-08-16T00:47:58;19.30;99.90
54168;DHT22;40072;50.958;3.592;2022-08-16T00:50:30;19.20;99.90
54168;DHT22;40072;50.958;3.592;2022-08-16T00:52:56;19.20;99.90
54168;DHT22;40072;50.958;3.592;2022-08-16T00:55:23;19.10;99.90
54168;DHT22;40072;50.958;3.592;2022-08-16T00:57:53;19.10;99.90
54168;DHT22;40072;50.958;3.592;2022-08-16T01:00:20;19.10;99.90
54168;DHT22;40072;50.958;3.592;2022-08-16T01:02:49;19.10;99.90
54168;DHT22;40072;50.958;3.592;2022-08-16T01:05:15;19.10;99.90
54168;DHT22;40072;50.958;3.592;2022-08-16T01:07:43;19.10;99.90
54168;DHT22;40072;50.958;3.592;2022-08-16T01:10:09;19.00;99.90
54168;DHT22;40072;50.958;3.592;2022-08-16T01:12:35;18.90;99.90
54168;DHT22;40072;50.958;3.592;2022-08-16T01:15:01;18.90;99.90
54168;DHT22;40072;50.958;3.592;2022-08-16T01:17:27;18.90;99.90
54168;DHT22;40072;50.958;3.592;2022-08-16T01:19:57;18.90;99.90
54168;DHT22;40072;50.958;3.592;2022-08-16T01:22:38;18.80;99.90
54168;DHT22;40072;50.958;3.592;2022-08-16T01:25:13;18.80;99.90
54168;DHT22;40072;50.958;3.592;2022-08-16T01:27:46;18.80;99.90
54168;DHT22;40072;50.958;3.592;2022-08-16T01:30:22;18.80;99.90
54168;DHT22;40072;50.958;3.592;2022-08-16T01:32:51;18.80;99.90
54168;DHT22;40072;50.958;3.592;2022-08-16T01:35:21;18.80;99.90
54168;DHT22;40072;50.958;3.592;2022-08-16T01:37:53;18.80;99.90
54168;DHT22;40072;50.958;3.592;2022-08-16T01:40:23;18.80;99.90
54168;DHT22;40072;50.958;3.592;2022-08-16T01:42:50;18.70;99.90
54168;DHT22;40072;50.958;3.592;2022-08-16T01:45:18;18.60;99.90
54168;DHT22;40072;50.958;3.592;2022-08-16T01:47:46;18.50;99.90
54168;DHT22;40072;50.958;3.592;2022-08-16T01:50:12;18.50;99.90
54168;DHT22;40072;50.958;3.592;2022-08-16T01:52:39;18.50;99.90
54168;DHT22;40072;50.958;3.592;2022-08-16T01:55:06;18.60;99.90
54168;DHT22;40072;50.958;3.592;2022-08-16T01:57:32;18.60;99.90
54168;DHT22;40072;50.958;3.592;2022-08-16T01:59:59;18.50;99.90
54168;DHT22;40072;50.958;3.592;2022-08-16T02:02:25;18.60;99.90
54168;DHT22;40072;50.958;3.592;2022-08-16T02:04:51;18.60;99.90
54168;DHT22;40072;50.958;3.592;2022-08-16T02:07:18;18.70;99.90
54168;DHT22;40072;50.958;3.592;2022-08-16T02:09:46;18.60;99.90
54168;DHT22;40072;50.958;3.592;2022-08-16T02:12:13;18.70;99.90
54168;DHT22;40072;50.958;3.592;2022-08-16T02:14:41;18.60;99.90
54168;DHT22;40072;50.958;3.592;2022-08-16T02:17:09;18.60;99.90
54168;DHT22;40072;50.958;3.592;2022-08-16T02:19:38;18.60;99.90
54168;DHT22;40072;50.958;3.592;2022-08-16T02:22:05;18.60;99.90
54168;DHT22;40072;50.958;3.592;2022-08-16T02:24:32;18.60;99.90
54168;DHT22;40072;50.958;3.592;2022-08-16T02:26:58;18.50;99.90
54168;DHT22;40072;50.958;3.592;2022-08-16T02:29:23;18.50;99.90
54168;DHT22;40072;50.958;3.592;2022-08-16T02:31:50;18.60;99.90
54168;DHT22;40072;50.958;3.592;2022-08-16T02:34:16;18.50;99.90
54168;DHT22;40072;50.958;3.592;2022-08-16T02:36:43;18.40;99.90
54168;DHT22;40072;50.958;3.592;2022-08-16T02:39:10;18.40;99.90
54168;DHT22;40072;50.958;3.592;2022-08-16T02:41:39;18.40;99.90
54168;DHT22;40072;50.958;3.592;2022-08-16T02:44:08;18.30;99.90
54168;DHT22;40072;50.958;3.592;2022-08-16T02:46:36;18.40;99.90
54168;DHT22;40072;50.958;3.592;2022-08-16T02:49:02;18.40;99.90
54168;DHT22;40072;50.958;3.592;2022-08-16T02:51:29;18.40;99.90
54168;DHT22;40072;50.958;3.592;2022-08-16T02:53:54;18.20;99.90
54168;DHT22;40072;50.958;3.592;2022-08-16T02:56:20;18.20;99.90
54168;DHT22;40072;50.958;3.592;2022-08-16T02:58:49;18.20;99.90
54168;DHT22;40072;50.958;3.592;2022-08-16T03:01:19;18.20;99.90
54168;DHT22;40072;50.958;3.592;2022-08-16T03:03:46;18.30;99.90
54168;DHT22;40072;50.958;3.592;2022-08-16T03:06:13;18.20;99.90
54168;DHT22;40072;50.958;3.592;2022-08-16T03:08:39;18.10;99.90
54168;DHT22;40072;50.958;3.592;2022-08-16T03:11:04;18.20;99.90
54168;DHT22;40072;50.958;3.592;2022-08-16T03:13:30;18.10;99.90
54168;DHT22;40072;50.958;3.592;2022-08-16T03:15:57;18.00;99.90
54168;DHT22;40072;50.958;3.592;2022-08-16T03:18:23;17.90;99.90
54168;DHT22;40072;50.958;3.592;2022-08-16T03:20:48;17.90;99.90
54168;DHT22;40072;50.958;3.592;2022-08-16T03:23:14;17.80;99.90
54168;DHT22;40072;50.958;3.592;2022-08-16T03:25:40;17.80;99.90
54168;DHT22;40072;50.958;3.592;2022-08-16T03:28:06;17.90;99.90
54168;DHT22;40072;50.958;3.592;2022-08-16T03:30:34;18.00;99.90
54168;DHT22;40072;50.958;3.592;2022-08-16T03:33:00;18.00;99.90
54168;DHT22;40072;50.958;3.592;2022-08-16T03:35:28;18.00;99.90
54168;DHT22;40072;50.958;3.592;2022-08-16T03:37:57;18.10;99.90
54168;DHT22;40072;50.958;3.592;2022-08-16T03:40:23;18.10;99.90
54168;DHT22;40072;50.958;3.592;2022-08-16T03:42:49;18.20;99.90
54168;DHT22;40072;50.958;3.592;2022-08-16T03:45:14;18.20;99.90
54168;DHT22;40072;50.958;3.592;2022-08-16T03:47:41;18.30;99.90
54168;DHT22;40072;50.958;3.592;2022-08-16T03:50:07;18.20;99.90
54168;DHT22;40072;50.958;3.592;2022-08-16T03:52:33;18.30;99.90
54168;DHT22;40072;50.958;3.592;2022-08-16T03:55:00;18.30;99.90
54168;DHT22;40072;50.958;3.592;2022-08-16T03:57:27;18.30;99.90
54168;DHT22;40072;50.958;3.592;2022-08-16T03:59:53;18.30;99.90
54168;DHT22;40072;50.958;3.592;2022-08-16T04:02:19;18.40;99.90
54168;DHT22;40072;50.958;3.592;2022-08-16T04:04:45;18.40;99.90
54168;DHT22;40072;50.958;3.592;2022-08-16T04:07:11;18.40;99.90
54168;DHT22;40072;50.958;3.592;2022-08-16T04:09:37;18.40;99.90
54168;DHT22;40072;50.958;3.592;2022-08-16T04:12:04;18.40;99.90
54168;DHT22;40072;50.958;3.592;2022-08-16T04:14:30;18.30;99.90
54168;DHT22;40072;50.958;3.592;2022-08-16T04:16:56;18.30;99.90
54168;DHT22;40072;50.958;3.592;2022-08-16T04:19:21;18.40;99.90
54168;DHT22;40072;50.958;3.592;2022-08-16T04:21:52;18.30;99.90
54168;DHT22;40072;50.958;3.592;2022-08-16T04:24:18;18.40;99.90
54168;DHT22;40072;50.958;3.592;2022-08-16T04:26:44;18.40;99.90
54168;DHT22;40072;50.958;3.592;2022-08-16T04:29:10;18.40;99.90
54168;DHT22;40072;50.958;3.592;2022-08-16T04:31:36;18.40;99.90
54168;DHT22;40072;50.958;3.592;2022-08-16T04:34:01;18.50;99.90
54168;DHT22;40072;50.958;3.592;2022-08-16T04:36:27;18.50;99.90
54168;DHT22;40072;50.958;3.592;2022-08-16T04:38:53;18.40;99.90
54168;DHT22;40072;50.958;3.592;2022-08-16T04:41:20;18.40;99.90
54168;DHT22;40072;50.958;3.592;2022-08-16T04:43:47;18.40;99.90
54168;DHT22;40072;50.958;3.592;2022-08-16T04:46:12;18.50;99.90
54168;DHT22;40072;50.958;3.592;2022-08-16T04:48:41;18.40;99.90
54168;DHT22;40072;50.958;3.592;2022-08-16T04:51:09;18.40;99.90
54168;DHT22;40072;50.958;3.592;2022-08-16T04:53:35;18.40;99.90
54168;DHT22;40072;50.958;3.592;2022-08-16T04:56:01;18.40;99.90
54168;DHT22;40072;50.958;3.592;2022-08-16T04:58:26;18.40;99.90
54168;DHT22;40072;50.958;3.592;2022-08-16T05:00:52;18.50;99.90
54168;DHT22;40072;50.958;3.592;2022-08-16T05:03:18;18.50;99.90
54168;DHT22;40072;50.958;3.592;2022-08-16T05:05:45;18.50;99.90
54168;DHT22;40072;50.958;3.592;2022-08-16T05:08:12;18.50;99.90
54168;DHT22;40072;50.958;3.592;2022-08-16T05:10:38;18.50;99.90
54168;DHT22;40072;50.958;3.592;2022-08-16T05:13:05;18.60;99.90
54168;DHT22;40072;50.958;3.592;2022-08-16T05:15:31;18.60;99.90
54168;DHT22;40072;50.958;3.592;2022-08-16T05:17:57;18.60;99.90
54168;DHT22;40072;50.958;3.592;2022-08-16T05:20:23;18.60;99.90
54168;DHT22;40072;50.958;3.592;2022-08-16T05:22:49;18.70;99.90
54168;DHT22;40072;50.958;3.592;2022-08-16T05:25:15;18.70;99.90
54168;DHT22;40072;50.958;3.592;2022-08-16T05:27:41;18.70;99.90
54168;DHT22;40072;50.958;3.592;2022-08-16T05:30:09;18.80;99.90
54168;DHT22;40072;50.958;3.592;2022-08-16T05:32:38;18.90;99.90
54168;DHT22;40072;50.958;3.592;2022-08-16T05:35:06;19.20;99.90
54168;DHT22;40072;50.958;3.592;2022-08-16T05:37:34;19.50;99.90
54168;DHT22;40072;50.958;3.592;2022-08-16T05:40:01;19.80;99.90
54168;DHT22;40072;50.958;3.592;2022-08-16T05:42:26;20.30;99.90
54168;DHT22;40072;50.958;3.592;2022-08-16T05:44:52;20.80;99.90
54168;DHT22;40072;50.958;3.592;2022-08-16T05:47:17;21.00;99.90
54168;DHT22;40072;50.958;3.592;2022-08-16T05:49:43;21.10;99.90
54168;DHT22;40072;50.958;3.592;2022-08-16T05:52:10;21.40;99.90
54168;DHT22;40072;50.958;3.592;2022-08-16T05:54:36;21.30;99.90
54168;DHT22;40072;50.958;3.592;2022-08-16T05:57:02;20.90;99.90
54168;DHT22;40072;50.958;3.592;2022-08-16T05:59:28;20.60;99.90
54168;DHT22;40072;50.958;3.592;2022-08-16T06:01:54;20.60;99.90
54168;DHT22;40072;50.958;3.592;2022-08-16T06:04:20;20.50;99.90
54168;DHT22;40072;50.958;3.592;2022-08-16T06:06:46;20.50;99.90
54168;DHT22;40072;50.958;3.592;2022-08-16T06:09:12;20.40;99.90
54168;DHT22;40072;50.958;3.592;2022-08-16T06:11:39;20.40;99.90
54168;DHT22;40072;50.958;3.592;2022-08-16T06:14:05;20.40;99.90
54168;DHT22;40072;50.958;3.592;2022-08-16T06:16:31;20.50;99.90
54168;DHT22;40072;50.958;3.592;2022-08-16T06:18:56;20.70;99.90
54168;DHT22;40072;50.958;3.592;2022-08-16T06:21:22;20.60;99.90
54168;DHT22;40072;50.958;3.592;2022-08-16T06:23:48;20.60;99.90
54168;DHT22;40072;50.958;3.592;2022-08-16T06:26:14;20.70;99.90
54168;DHT22;40072;50.958;3.592;2022-08-16T06:28:40;20.90;99.90
54168;DHT22;40072;50.958;3.592;2022-08-16T06:31:08;21.00;99.90
54168;DHT22;40072;50.958;3.592;2022-08-16T06:33:34;20.80;99.90
54168;DHT22;40072;50.958;3.592;2022-08-16T06:36:00;21.00;99.90
54168;DHT22;40072;50.958;3.592;2022-08-16T06:38:27;21.00;99.90
54168;DHT22;40072;50.958;3.592;2022-08-16T06:40:53;20.80;99.90
54168;DHT22;40072;50.958;3.592;2022-08-16T06:43:18;20.80;99.90
54168;DHT22;40072;50.958;3.592;2022-08-16T06:45:48;20.80;99.90
54168;DHT22;40072;50.958;3.592;2022-08-16T06:48:13;20.80;99.90
54168;DHT22;40072;50.958;3.592;2022-08-16T06:50:40;20.80;99.90
54168;DHT22;40072;50.958;3.592;2022-08-16T06:53:05;20.70;99.90
54168;DHT22;40072;50.958;3.592;2022-08-16T06:55:32;20.80;99.90
54168;DHT22;40072;50.958;3.592;2022-08-16T06:58:01;20.90;99.90
54168;DHT22;40072;50.958;3.592;2022-08-16T07:00:27;21.10;99.90
54168;DHT22;40072;50.958;3.592;2022-08-16T07:02:54;21.20;99.90
54168;DHT22;40072;50.958;3.592;2022-08-16T07:05:21;21.50;99.90
54168;DHT22;40072;50.958;3.592;2022-08-16T07:07:47;21.60;99.90
54168;DHT22;40072;50.958;3.592;2022-08-16T07:10:14;21.80;99.90
54168;DHT22;40072;50.958;3.592;2022-08-16T07:12:41;21.70;99.90
54168;DHT22;40072;50.958;3.592;2022-08-16T07:15:08;21.40;99.90
54168;DHT22;40072;50.958;3.592;2022-08-16T07:17:34;21.50;99.90
54168;DHT22;40072;50.958;3.592;2022-08-16T07:20:01;21.50;99.90
54168;DHT22;40072;50.958;3.592;2022-08-16T07:22:26;21.60;99.90
54168;DHT22;40072;50.958;3.592;2022-08-16T07:24:52;21.50;99.90
54168;DHT22;40072;50.958;3.592;2022-08-16T07:27:18;21.60;99.90
54168;DHT22;40072;50.958;3.592;2022-08-16T07:29:43;21.90;99.90
54168;DHT22;40072;50.958;3.592;2022-08-16T07:32:09;21.80;99.90
54168;DHT22;40072;50.958;3.592;2022-08-16T07:34:35;21.60;99.90
54168;DHT22;40072;50.958;3.592;2022-08-16T07:37:05;21.60;99.90
54168;DHT22;40072;50.958;3.592;2022-08-16T07:39:31;21.60;99.90
54168;DHT22;40072;50.958;3.592;2022-08-16T07:41:57;21.60;99.90
54168;DHT22;40072;50.958;3.592;2022-08-16T07:44:23;21.40;99.90
54168;DHT22;40072;50.958;3.592;2022-08-16T07:46:49;21.20;99.90
54168;DHT22;40072;50.958;3.592;2022-08-16T07:49:15;21.20;99.90
54168;DHT22;40072;50.958;3.592;2022-08-16T07:51:41;21.20;99.90
54168;DHT22;40072;50.958;3.592;2022-08-16T07:54:08;21.10;99.90
54168;DHT22;40072;50.958;3.592;2022-08-16T07:56:34;21.00;99.90
54168;DHT22;40072;50.958;3.592;2022-08-16T07:59:00;21.10;99.90
54168;DHT22;40072;50.958;3.592;2022-08-16T08:01:27;21.20;99.90
54168;DHT22;40072;50.958;3.592;2022-08-16T08:03:55;21.30;99.90
54168;DHT22;40072;50.958;3.592;2022-08-16T08:06:23;21.40;99.90
54168;DHT22;40072;50.958;3.592;2022-08-16T08:08:49;21.60;99.90
54168;DHT22;40072;50.958;3.592;2022-08-16T08:11:15;21.80;99.90
54168;DHT22;40072;50.958;3.592;2022-08-16T08:13:41;21.80;99.90
54168;DHT22;40072;50.958;3.592;2022-08-16T08:16:07;21.80;99.90
54168;DHT22;40072;50.958;3.592;2022-08-16T08:18:35;21.70;99.90
54168;DHT22;40072;50.958;3.592;2022-08-16T08:21:00;21.90;99.90
54168;DHT22;40072;50.958;3.592;2022-08-16T08:23:26;21.90;99.90
54168;DHT22;40072;50.958;3.592;2022-08-16T08:25:52;22.20;99.90
54168;DHT22;40072;50.958;3.592;2022-08-16T08:28:19;22.60;99.90
54168;DHT22;40072;50.958;3.592;2022-08-16T08:30:45;22.70;99.90
54168;DHT22;40072;50.958;3.592;2022-08-16T08:33:11;22.90;99.90
54168;DHT22;40072;50.958;3.592;2022-08-16T08:35:37;23.20;99.90
54168;DHT22;40072;50.958;3.592;2022-08-16T08:38:04;23.30;99.90
54168;DHT22;40072;50.958;3.592;2022-08-16T08:40:33;23.20;99.90
54168;DHT22;40072;50.958;3.592;2022-08-16T08:43:01;23.50;99.90
54168;DHT22;40072;50.958;3.592;2022-08-16T08:45:28;23.80;99.90
54168;DHT22;40072;50.958;3.592;2022-08-16T08:47:54;23.60;99.90
54168;DHT22;40072;50.958;3.592;2022-08-16T08:50:22;23.50;99.90
54168;DHT22;40072;50.958;3.592;2022-08-16T08:52:48;23.50;99.90
54168;DHT22;40072;50.958;3.592;2022-08-16T08:55:16;23.70;99.90
54168;DHT22;40072;50.958;3.592;2022-08-16T08:57:44;23.70;99.90
54168;DHT22;40072;50.958;3.592;2022-08-16T09:00:12;23.70;99.90
54168;DHT22;40072;50.958;3.592;2022-08-16T09:02:38;23.80;99.90
54168;DHT22;40072;50.958;3.592;2022-08-16T09:05:04;24.00;99.90
54168;DHT22;40072;50.958;3.592;2022-08-16T09:07:29;24.10;99.90
54168;DHT22;40072;50.958;3.592;2022-08-16T09:09:55;24.00;99.90
54168;DHT22;40072;50.958;3.592;2022-08-16T09:12:21;24.10;99.90
54168;DHT22;40072;50.958;3.592;2022-08-16T09:14:48;24.10;99.90
54168;DHT22;40072;50.958;3.592;2022-08-16T09:17:14;24.30;99.90
54168;DHT22;40072;50.958;3.592;2022-08-16T09:19:40;24.30;99.90
54168;DHT22;40072;50.958;3.592;2022-08-16T09:22:07;24.50;99.90
54168;DHT22;40072;50.958;3.592;2022-08-16T09:24:34;24.60;99.90
54168;DHT22;40072;50.958;3.592;2022-08-16T09:27:00;24.60;99.90
54168;DHT22;40072;50.958;3.592;2022-08-16T09:29:25;24.70;99.70
54168;DHT22;40072;50.958;3.592;2022-08-16T09:31:54;25.10;98.40
54168;DHT22;40072;50.958;3.592;2022-08-16T09:34:21;25.60;97.80
54168;DHT22;40072;50.958;3.592;2022-08-16T09:36:46;25.90;97.10
54168;DHT22;40072;50.958;3.592;2022-08-16T09:39:13;25.80;96.60
54168;DHT22;40072;50.958;3.592;2022-08-16T09:41:39;25.90;95.00
54168;DHT22;40072;50.958;3.592;2022-08-16T09:44:04;26.10;95.20
54168;DHT22;40072;50.958;3.592;2022-08-16T09:46:31;25.90;95.00
54168;DHT22;40072;50.958;3.592;2022-08-16T09:48:57;25.70;94.80
54168;DHT22;40072;50.958;3.592;2022-08-16T09:51:23;25.80;94.50
54168;DHT22;40072;50.958;3.592;2022-08-16T09:53:51;25.80;94.30
54168;DHT22;40072;50.958;3.592;2022-08-16T09:56:27;25.70;94.60
54168;DHT22;40072;50.958;3.592;2022-08-16T09:58:55;25.70;95.00
54168;DHT22;40072;50.958;3.592;2022-08-16T10:01:21;26.10;94.20
54168;DHT22;40072;50.958;3.592;2022-08-16T10:03:47;26.30;93.10
54168;DHT22;40072;50.958;3.592;2022-08-16T10:06:13;26.30;93.50
54168;DHT22;40072;50.958;3.592;2022-08-16T10:08:38;26.70;93.50
54168;DHT22;40072;50.958;3.592;2022-08-16T10:11:04;26.90;92.80
54168;DHT22;40072;50.958;3.592;2022-08-16T10:13:48;27.00;92.40
54168;DHT22;40072;50.958;3.592;2022-08-16T10:16:14;26.60;92.50
54168;DHT22;40072;50.958;3.592;2022-08-16T10:18:41;26.60;92.60
54168;DHT22;40072;50.958;3.592;2022-08-16T10:21:07;26.20;92.80
54168;DHT22;40072;50.958;3.592;2022-08-16T10:23:33;26.40;92.40
54168;DHT22;40072;50.958;3.592;2022-08-16T10:25:59;26.60;92.00
54168;DHT22;40072;50.958;3.592;2022-08-16T10:28:25;26.40;91.10
54168;DHT22;40072;50.958;3.592;2022-08-16T10:30:52;26.40;90.50
54168;DHT22;40072;50.958;3.592;2022-08-16T10:33:17;26.20;90.80
54168;DHT22;40072;50.958;3.592;2022-08-16T10:35:44;26.10;91.20
54168;DHT22;40072;50.958;3.592;2022-08-16T10:38:11;26.10;91.40
54168;DHT22;40072;50.958;3.592;2022-08-16T10:40:41;26.20;91.10
54168;DHT22;40072;50.958;3.592;2022-08-16T10:43:07;26.50;91.00
54168;DHT22;40072;50.958;3.592;2022-08-16T10:45:32;27.00;91.00
54168;DHT22;40072;50.958;3.592;2022-08-16T10:47:58;27.50;90.30
54168;DHT22;40072;50.958;3.592;2022-08-16T10:50:25;27.30;90.30
54168;DHT22;40072;50.958;3.592;2022-08-16T10:52:51;27.20;90.10
54168;DHT22;40072;50.958;3.592;2022-08-16T10:55:18;28.10;90.10
54168;DHT22;40072;50.958;3.592;2022-08-16T10:57:44;28.50;88.00
54168;DHT22;40072;50.958;3.592;2022-08-16T11:00:13;28.80;87.40
54168;DHT22;40072;50.958;3.592;2022-08-16T11:02:40;29.20;83.00
54168;DHT22;40072;50.958;3.592;2022-08-16T11:05:08;28.70;83.30
54168;DHT22;40072;50.958;3.592;2022-08-16T11:07:41;29.50;83.60
54168;DHT22;40072;50.958;3.592;2022-08-16T11:10:07;29.80;80.50
54168;DHT22;40072;50.958;3.592;2022-08-16T11:12:33;31.30;78.80
54168;DHT22;40072;50.958;3.592;2022-08-16T11:14:59;32.10;77.90
54168;DHT22;40072;50.958;3.592;2022-08-16T11:17:25;31.70;76.10
54168;DHT22;40072;50.958;3.592;2022-08-16T11:19:51;31.50;78.00
54168;DHT22;40072;50.958;3.592;2022-08-16T11:22:16;31.80;74.70
54168;DHT22;40072;50.958;3.592;2022-08-16T11:24:44;33.30;72.90
54168;DHT22;40072;50.958;3.592;2022-08-16T11:27:14;32.70;74.90
54168;DHT22;40072;50.958;3.592;2022-08-16T11:29:40;32.70;72.60
54168;DHT22;40072;50.958;3.592;2022-08-16T11:32:06;32.80;70.90
54168;DHT22;40072;50.958;3.592;2022-08-16T11:34:31;32.20;72.00
54168;DHT22;40072;50.958;3.592;2022-08-16T11:36:59;31.10;74.80
54168;DHT22;40072;50.958;3.592;2022-08-16T11:39:26;30.20;76.20
54168;DHT22;40072;50.958;3.592;2022-08-16T11:41:52;30.10;77.60
54168;DHT22;40072;50.958;3.592;2022-08-16T11:44:17;28.90;79.40
54168;DHT22;40072;50.958;3.592;2022-08-16T11:46:43;28.90;81.10
54168;DHT22;40072;50.958;3.592;2022-08-16T11:49:09;28.40;80.00
54168;DHT22;40072;50.958;3.592;2022-08-16T11:51:34;28.40;80.40
54168;DHT22;40072;50.958;3.592;2022-08-16T11:54:00;28.40;79.40
54168;DHT22;40072;50.958;3.592;2022-08-16T11:56:26;28.60;81.30
54168;DHT22;40072;50.958;3.592;2022-08-16T11:58:52;29.30;79.40
54168;DHT22;40072;50.958;3.592;2022-08-16T12:01:17;29.50;78.80
54168;DHT22;40072;50.958;3.592;2022-08-16T12:03:44;29.50;78.70
54168;DHT22;40072;50.958;3.592;2022-08-16T12:06:16;29.40;79.10
54168;DHT22;40072;50.958;3.592;2022-08-16T12:08:45;29.90;79.40
54168;DHT22;40072;50.958;3.592;2022-08-16T12:11:12;29.50;78.80
54168;DHT22;40072;50.958;3.592;2022-08-16T12:13:39;29.50;78.90
54168;DHT22;40072;50.958;3.592;2022-08-16T12:16:06;29.80;78.50
54168;DHT22;40072;50.958;3.592;2022-08-16T12:18:33;30.60;77.60
54168;DHT22;40072;50.958;3.592;2022-08-16T12:20:58;31.70;75.60
54168;DHT22;40072;50.958;3.592;2022-08-16T12:23:24;31.70;74.40
54168;DHT22;40072;50.958;3.592;2022-08-16T12:25:50;32.50;74.80
54168;DHT22;40072;50.958;3.592;2022-08-16T12:28:16;32.60;73.80
54168;DHT22;40072;50.958;3.592;2022-08-16T12:30:43;31.90;72.80
54168;DHT22;40072;50.958;3.592;2022-08-16T12:33:11;31.80;74.10
54168;DHT22;40072;50.958;3.592;2022-08-16T12:35:39;33.80;71.90
54168;DHT22;40072;50.958;3.592;2022-08-16T12:38:06;36.00;68.40
54168;DHT22;40072;50.958;3.592;2022-08-16T12:40:36;34.90;67.60
54168;DHT22;40072;50.958;3.592;2022-08-16T12:43:04;35.30;67.40
54168;DHT22;40072;50.958;3.592;2022-08-16T12:45:34;34.10;68.70
54168;DHT22;40072;50.958;3.592;2022-08-16T12:48:00;35.30;67.70
54168;DHT22;40072;50.958;3.592;2022-08-16T12:50:45;34.50;66.10
54168;DHT22;40072;50.958;3.592;2022-08-16T12:53:11;34.00;67.20
54168;DHT22;40072;50.958;3.592;2022-08-16T12:55:37;34.10;68.10
54168;DHT22;40072;50.958;3.592;2022-08-16T12:58:03;34.50;67.40
54168;DHT22;40072;50.958;3.592;2022-08-16T13:00:31;35.10;66.80
54168;DHT22;40072;50.958;3.592;2022-08-16T13:02:58;35.10;66.20
54168;DHT22;40072;50.958;3.592;2022-08-16T13:05:25;33.20;67.30
54168;DHT22;40072;50.958;3.592;2022-08-16T13:07:52;31.90;69.10
54168;DHT22;40072;50.958;3.592;2022-08-16T13:10:19;32.30;70.50
54168;DHT22;40072;50.958;3.592;2022-08-16T13:12:50;33.10;68.70
54168;DHT22;40072;50.958;3.592;2022-08-16T13:15:21;33.40;67.00
54168;DHT22;40072;50.958;3.592;2022-08-16T13:17:48;33.20;67.10
54168;DHT22;40072;50.958;3.592;2022-08-16T13:20:16;32.10;68.70
54168;DHT22;40072;50.958;3.592;2022-08-16T13:22:49;31.90;69.30
54168;DHT22;40072;50.958;3.592;2022-08-16T13:25:20;32.30;68.40
54168;DHT22;40072;50.958;3.592;2022-08-16T13:27:46;32.90;70.10
54168;DHT22;40072;50.958;3.592;2022-08-16T13:30:12;33.50;67.50
54168;DHT22;40072;50.958;3.592;2022-08-16T13:32:38;33.10;68.10
54168;DHT22;40072;50.958;3.592;2022-08-16T13:35:06;31.90;69.70
54168;DHT22;40072;50.958;3.592;2022-08-16T13:37:31;31.30;70.80
54168;DHT22;40072;50.958;3.592;2022-08-16T13:39:57;31.40;70.80
54168;DHT22;40072;50.958;3.592;2022-08-16T13:42:23;31.60;70.70
54168;DHT22;40072;50.958;3.592;2022-08-16T13:44:50;31.60;71.20
54168;DHT22;40072;50.958;3.592;2022-08-16T13:47:15;31.20;72.00
54168;DHT22;40072;50.958;3.592;2022-08-16T13:49:41;31.40;70.80
54168;DHT22;40072;50.958;3.592;2022-08-16T13:52:09;31.80;71.50
54168;DHT22;40072;50.958;3.592;2022-08-16T13:54:35;32.00;71.30
54168;DHT22;40072;50.958;3.592;2022-08-16T13:57:02;32.90;68.90
54168;DHT22;40072;50.958;3.592;2022-08-16T13:59:27;32.80;70.80
54168;DHT22;40072;50.958;3.592;2022-08-16T14:01:55;32.90;68.80
54168;DHT22;40072;50.958;3.592;2022-08-16T14:04:32;32.70;69.90
54168;DHT22;40072;50.958;3.592;2022-08-16T14:07:00;32.00;71.30
54168;DHT22;40072;50.958;3.592;2022-08-16T14:09:27;31.10;73.20
54168;DHT22;40072;50.958;3.592;2022-08-16T14:11:54;31.30;74.90
54168;DHT22;40072;50.958;3.592;2022-08-16T14:14:20;31.20;73.80
54168;DHT22;40072;50.958;3.592;2022-08-16T14:16:46;31.10;74.50
54168;DHT22;40072;50.958;3.592;2022-08-16T14:19:11;30.90;75.90
54168;DHT22;40072;50.958;3.592;2022-08-16T14:21:43;30.70;74.80
54168;DHT22;40072;50.958;3.592;2022-08-16T14:24:10;30.80;75.20
54168;DHT22;40072;50.958;3.592;2022-08-16T14:26:38;29.70;78.10
54168;DHT22;40072;50.958;3.592;2022-08-16T14:29:04;29.70;78.20
54168;DHT22;40072;50.958;3.592;2022-08-16T14:31:30;29.70;78.40
54168;DHT22;40072;50.958;3.592;2022-08-16T14:33:55;29.90;79.70
54168;DHT22;40072;50.958;3.592;2022-08-16T14:36:21;30.00;79.70
54168;DHT22;40072;50.958;3.592;2022-08-16T14:38:47;29.80;78.60
54168;DHT22;40072;50.958;3.592;2022-08-16T14:41:12;29.60;78.90
54168;DHT22;40072;50.958;3.592;2022-08-16T14:43:38;29.20;79.60
54168;DHT22;40072;50.958;3.592;2022-08-16T14:46:04;28.80;80.40
54168;DHT22;40072;50.958;3.592;2022-08-16T14:48:30;28.50;80.90
54168;DHT22;40072;50.958;3.592;2022-08-16T14:50:55;28.10;81.70
54168;DHT22;40072;50.958;3.592;2022-08-16T14:53:23;28.10;82.20
54168;DHT22;40072;50.958;3.592;2022-08-16T14:55:49;28.00;82.50
54168;DHT22;40072;50.958;3.592;2022-08-16T14:58:15;27.80;82.90
54168;DHT22;40072;50.958;3.592;2022-08-16T15:00:41;27.10;89.00
54168;DHT22;40072;50.958;3.592;2022-08-16T15:03:08;26.00;92.30
54168;DHT22;40072;50.958;3.592;2022-08-16T15:05:38;25.30;94.80
54168;DHT22;40072;50.958;3.592;2022-08-16T15:08:04;24.90;97.10
54168;DHT22;40072;50.958;3.592;2022-08-16T15:10:30;24.70;99.80
54168;DHT22;40072;50.958;3.592;2022-08-16T15:12:55;24.30;99.90
54168;DHT22;40072;50.958;3.592;2022-08-16T15:15:24;24.10;99.90
54168;DHT22;40072;50.958;3.592;2022-08-16T15:17:51;23.90;99.90
54168;DHT22;40072;50.958;3.592;2022-08-16T15:20:17;23.70;99.90
54168;DHT22;40072;50.958;3.592;2022-08-16T15:22:45;23.50;99.90
54168;DHT22;40072;50.958;3.592;2022-08-16T15:25:35;23.30;99.90
54168;DHT22;40072;50.958;3.592;2022-08-16T15:28:03;23.40;99.90